Polk Army Air Field
KPOE : rendu visible

Aérodrome :











RETROUVEZ-NOUS SUR...

 
LOGIN :

S'inscrire | Disclaimer

   EN    FR    IT 

 









Légende :    VFR   VFR Marginal   IFR   IFR Intensif   IFR Très Intensif
Visi : 
Plafond : 
>= 8 km
>= 3000ft
5 à 8 km
1000 à 3000 ft
1500m à 5 km
500 à 1000 ft
800 à 1500m
200 à 500 ft
< 800m
< 200 ft
Symboles :   Orages  Brouillard  Fortes neiges  Fortes précipitations  Vent > 20 kt






- Altitude de l'aérodrome : 330 ft


KPOE - Polk Army Air Field

DERNIER METAR :
  • 031558Z AUTO 32008KT 6SM BR OVC008 08/08 A3020 RMK AO2 RAB02E24 CIG 008V010 SLP230 P0000 T00830082

METARs EXPIRÉS :
  • 031554Z AUTO 33007KT 6SM BR FEW003 OVC009 08/08 A3019 RMK AO2 RAB02E24 SLP226
  • 031539Z AUTO 33010KT 4SM BR BKN003 OVC008 08/08 A3019 RMK AO2 RAB02E24 BKN V OVC SLP226
  • 031524Z AUTO 34007KT 1 1/4SM BR OVC003 08/08 A3020 RMK AO2 RAB02E24 SLP229
  • 031517Z AUTO 31010KT 1SM -RA BR VV003 09/08 A3020 RMK AO2 VIS 1V2 1/4 RAB02 SLP229 RVRNO
  • 031502Z AUTO 30010KT 2 1/2SM -RA BR OVC004 09/09 A3020 RMK AO2 VIS 2 1/4V2 3/4 RAB02 SLP229
  • 031458Z AUTO 30010KT 2 3/4SM BR OVC003 09/09 A3020 RMK AO2 VIS 1 7/8V2 3/4 RAB15E28 SLP229 P0001 60003 T00910090 52020
  • 031443Z AUTO 32006KT 1 5/8SM BR OVC003 10/09 A3020 RMK AO2 VIS 1 1/8V1 5/8 RAB15E28 SLP229 52021
  • 031428Z AUTO 32004KT 1 1/8SM BR OVC003 09/09 A3020 RMK AO2 RAB15E28 SLP229 52024
  • 031415Z AUTO 31004KT 1 1/8SM -RA BR OVC003 09/09 A3019 RMK AO2 LTG DSNT S RAB15 SLP226 52025
  • 031403Z AUTO 00000KT 1SM BR VV003 09/09 A3019 RMK AO2 SLP226 RVRNO
  • 031347Z AUTO 00000KT 1 1/8SM BR OVC003 09/09 A3019 RMK AO2 RAE02 SLP226
  • 031332Z AUTO 00000KT 1 7/8SM BR OVC004 09/09 A3018 RMK AO2 VIS 1 7/8V3 RAE02 SLP222

TAF TAF KPOE
Valide du 03 à 16h jusqu'au 04 à 22h UTC


031600Z 0316/0422 VRB06KT 6000 BR OVC008 QNH3011INS
TEMPO 0316/0319 BKN004
BECMG 0318/0319 33009KT 9999 NSW BKN010 QNH3010INS
BECMG 0321/0322 33006KT 9999 SCT030 QNH3008INS
BECMG 0415/0416 31012KT 9999 SCT010 QNH3016INS
BECMG 0416/0417 32012G18KT 9999 BKN015 QNH3017INS TX12/0318Z TN04/0409Z
FIR KZHU / Amérique du Nord



MET'MAP, la Météo Aéronautique d'un coup d'oeil ! - Copyright ORBIFLY Décembre 2007 - Disclaimer

ORBIFLY MET'MAP TEAM :

Programmation & Développement : Alexandra Zaïnal
Sur une idée originale de : Baudouin d'Aumeries
Assistance à la programmation : Marc-Olivier Méhu
Soutien technique & logistique : Manuel Goepfert

Contact : metmap@orbifly.com




SOURCES & CREDITS :

   NOAA       Earth
Advisory